Oldenburg, Germany

7:32 AM CEST on September 02, 2014 (GMT +0200)
Wiefelstede-Bokel | Change Station
CLOSE
Current Station
Personal Weather Station
Location: Wiefelstede, NIEDERSACHSEN
Elevation: 56 ft
Nearby Weather Stations

Elev 56 ft 53.23 °N, 8.14 °E | Updated 5 seconds ago

Light Drizzle
Light Drizzle Mist
60.6 °F
Feels Like 60.6 °F
N
0.2
Wind Variable Wind from NW
Gusts 2.9 mph

Today
High -- | Low -- °F
--% Chance of Precip.
Yesterday
High -- | Low -- °F
Precip. -- in
6:38 AM 8:14 PM
Waxing Crescent, 48% visible
Pressure 30.12 in
Visibility 2.2 miles
Clouds Mostly Cloudy 300 ft
Overcast 500 ft
Dew Point 60 °F
Humidity 99%
Rainfall 0.00 in
Snow Depth Not available.
UV 0.0 out of 12
Pollen Not available.
Air Quality Not available.
Flu Activity Not available.
METAR EDDW 020520Z 02007KT 3500 -DZ BR BKN003 OVC005 16/15 Q1020 NOSIG

More Conditions Fewer Conditions

Pressure 30.12 in
Visibility 2.2 miles
Clouds Mostly Cloudy 300 ft
Overcast 500 ft
Dew Point 60 °F
Humidity 99%
Rainfall 0.00 in
Snow Depth Not available.
UV 0.0 out of 12
Pollen Not available.
Air Quality Not available.
Flu Activity Not available.
METAR EDDW 020520Z 02007KT 3500 -DZ BR BKN003 OVC005 16/15 Q1020 NOSIG

More Conditions Fewer Conditions

10-Day Weather Forecast

Almanac

Astronomy

Sep. 02, 2014 Rise Set
Actual Time 6:38 AM CEST 8:14 PM CEST
Civil Twilight 6:02 AM CEST 8:50 PM CEST
Nautical Twilight 5:17 AM CEST 9:35 PM CEST
Astronomical Twilight 4:26 AM CEST 10:24 PM CEST
Moon 3:05 PM CEST 11:54 PM CEST
Length of Visible Light 14h 48m
Length of Day
13h 36m
Tomorrow will be 4m 5s shorter.
Waxing Crescent, 48% of the Moon is Illuminated
Today
Waxing Crescent
Sep 2
First Quarter
Sep 8
Full
Sep 15
Last Quarter
Sep 24
New

Yesterday's Extremes

Country Highs Country Lows

Community

WunderPhotos

Upload Photos

1,749,579 photos uploaded!

WunderBlogs® & News

Nearby

Snow Depth

Not available.

Earthquake Activity

City Distance Mag. Time & Date
No recent earthquake activity has been reported nearby.
Minimum magnitude displayed is 2.5.

Coastal Water Temperatures

Place Temperature
No Stations Reporting

Nearby Weather Stations